Hicksville, OH

1:39 PM EDT on September 21, 2014 (GMT -0400)
Tom Kneubuhler, Woodburn, In | Change Station
CLOSE
Current Station
Personal Weather Station
Location: Woodburn, IN
Elevation: 751 ft
Nearby Weather Stations

Elev 751 ft 41.18 °N, 84.84 °W | Updated 2 minutes ago

Mostly Cloudy
Mostly Cloudy
63.7 °F
Feels Like 63.7 °F
N
4.0
Wind Variable Wind from NW
Gusts 11.0 mph

Today
High -- | Low -- °F
--% Chance of Precip.
Yesterday
High -- | Low -- °F
Precip. -- in
7:25 AM 7:37 PM
Waning Crescent, 6% visible
Pressure 29.83 in
Visibility 10.0 miles
Clouds Scattered Clouds 3500 ft
Scattered Clouds 4700 ft
Scattered Clouds 6000 ft
Dew Point 53 °F
Humidity 68%
Rainfall 0.10 in
Snow Depth Not available.
UV 6 out of 12
Pollen 3.00 out of 12
Air Quality Not available.
Flu Activity Not available.
METAR KGWB 211715Z AUTO 28015G21KT 10SM SCT035 SCT047 SCT060 17/09 A2983 RMK AO2

More Conditions Fewer Conditions

Pressure 29.83 in
Visibility 10.0 miles
Clouds Scattered Clouds 3500 ft
Scattered Clouds 4700 ft
Scattered Clouds 6000 ft
Dew Point 53 °F
Humidity 68%
Rainfall 0.10 in
Snow Depth Not available.
UV 6 out of 12
Pollen 3.00 out of 12
Air Quality Not available.
Flu Activity Not available.
METAR KGWB 211715Z AUTO 28015G21KT 10SM SCT035 SCT047 SCT060 17/09 A2983 RMK AO2

More Conditions Fewer Conditions

10-Day Weather Forecast

Almanac

Astronomy

Sep. 21, 2014 Rise Set
Actual Time 7:25 AM EDT 7:37 PM EDT
Civil Twilight 6:57 AM EDT 8:05 PM EDT
Nautical Twilight 6:25 AM EDT 8:37 PM EDT
Astronomical Twilight 5:52 AM EDT 9:10 PM EDT
Moon 4:57 AM EDT 6:14 PM EDT
Length of Visible Light 13h 07m
Length of Day
12h 12m
Tomorrow will be 2m 44s shorter.
Waning Crescent, 6% of the Moon is Illuminated
Today
Waning Crescent
Sep 24
New
Oct 1
First Quarter
Oct 8
Full
Oct 15
Last Quarter

Today's Extremes

State Highs State Lows

Community

WunderPhotos

Upload Photos

1,755,199 photos uploaded!

WunderBlogs® & News

Nearby

Snow Depth

Station Depth Elevation
No new snow has been reported.

Earthquake Activity

City Distance Mag. Time & Date
No recent earthquake activity has been reported nearby.
Minimum magnitude displayed is 2.5.

Coastal Water Temperatures

Place Temperature
No Stations Reporting

Nearby Weather Stations